Time;durP1;ratioP1;P1;durP2;ratioP2;P2;SDS_P1;SDS_P2;PMS_P1;PMS_P2;Temp;Humidity;BMP_temperature;BMP_pressure;BME280_temperature;BME280_humidity;BME280_pressure;Samples;Min_cycle;Max_cycle;Signal;HPM_P1;HPM_P2
2022/01/25 00:29:13;;;;;;;6.90;5.20;;;9.20;61.60;;;7.60;65.71;102913.31;8393778;28;20126;-81
2022/01/25 00:33:35;;;;;;;6.68;5.18;;;9.20;61.50;;;7.44;65.68;102889.16;8409633;28;20103;-81
2022/01/25 00:37:57;;;;;;;7.25;4.72;;;9.20;61.50;;;7.51;65.75;102902.09;8402624;28;20122;-81
2022/01/25 00:42:18;;;;;;;5.63;4.68;;;9.10;61.40;;;7.40;65.57;102883.13;8418241;28;20113;-81
2022/01/25 00:46:40;;;;;;;5.18;4.57;;;9.10;61.40;;;7.44;66.09;102892.59;8402395;28;20110;-81
2022/01/25 00:51:56;;;;;;;8.93;5.18;;;9.10;61.40;;;7.49;66.17;102887.38;8401793;28;20498;-81
2022/01/25 00:55:44;;;;;;;7.05;5.03;;;9.00;61.30;;;7.50;65.84;102884.75;8425120;28;20598;-81
2022/01/25 01:00:09;;;;;;;7.15;5.07;;;9.10;61.50;;;7.50;65.59;102874.34;8412000;28;20123;-81
2022/01/25 01:04:32;;;;;;;5.88;4.55;;;9.00;61.40;;;7.41;65.73;102858.00;8421660;28;20111;-81
2022/01/25 01:08:54;;;;;;;6.78;4.63;;;9.00;61.40;;;7.42;65.85;102863.16;8419052;28;20107;-81
2022/01/25 01:13:45;;;;;;;8.65;5.88;;;8.90;61.30;;;7.49;66.00;102872.66;8395696;28;20130;-81
2022/01/25 01:32:01;;;;;;;6.43;4.68;;;9.00;61.20;;;7.45;66.05;102868.34;8420958;28;20107;-80
2022/01/25 01:37:01;;;;;;;6.50;4.68;;;9.00;61.20;;;7.35;65.89;102863.25;8426091;28;20130;-81
2022/01/25 01:50:29;;;;;;;9.05;5.80;;;9.00;61.30;;;7.28;65.78;102846.81;8411211;28;20115;-80
2022/01/25 01:54:51;;;;;;;6.82;5.15;;;9.00;61.30;;;7.43;66.01;102862.31;8421527;28;20119;-80
2022/01/25 01:59:16;;;;;;;5.90;4.50;;;9.00;61.20;;;7.35;66.28;102864.09;8411437;28;20050;-80
2022/01/25 02:03:38;;;;;;;7.35;5.72;;;8.90;61.20;;;7.33;65.75;102845.03;8443056;28;20046;-80
2022/01/25 02:08:00;;;;;;;5.95;4.43;;;9.00;61.20;;;7.41;65.66;102855.38;8388342;28;20107;-80
2022/01/25 02:12:22;;;;;;;9.27;5.45;;;9.00;61.20;;;7.47;66.04;102858.78;8411453;28;20042;-80
2022/01/25 02:25:57;;;;;;;9.55;6.50;;;9.00;61.80;;;7.28;65.76;102823.44;8431219;28;20396;-80
2022/01/25 02:30:19;;;;;;;8.40;5.93;;;9.00;61.20;;;7.38;66.11;102834.63;8437855;28;20103;-80
2022/01/25 02:34:41;;;;;;;6.85;5.07;;;9.00;61.20;;;7.35;65.64;102825.13;8417995;28;20466;-80
2022/01/25 02:39:03;;;;;;;7.03;5.43;;;9.00;61.20;;;7.39;65.87;102834.59;8408389;28;20469;-80
2022/01/25 02:43:27;;;;;;;9.23;6.32;;;9.00;61.20;;;7.42;65.77;102836.31;8419503;28;20046;-80
2022/01/25 02:52:30;;;;;;;6.70;5.55;;;9.00;61.10;;;7.28;65.98;102826.03;8406242;28;20103;-80
2022/01/25 02:56:52;;;;;;;8.52;6.10;;;9.00;61.10;;;7.26;65.81;102822.56;8415351;28;20115;-80
2022/01/25 03:01:14;;;;;;;9.18;6.47;;;9.00;61.00;;;7.31;66.17;102841.59;8404485;28;20123;-81
2022/01/25 03:05:36;;;;;;;11.18;7.55;;;8.90;60.90;;;7.15;66.04;102811.41;8414632;28;20036;-80
2022/01/25 03:09:59;;;;;;;8.88;6.07;;;8.80;60.90;;;7.24;66.07;102829.53;8406970;28;20119;-80
2022/01/25 03:14:22;;;;;;;12.93;8.30;;;8.80;60.90;;;7.17;66.02;102827.84;8409992;28;20110;-81
2022/01/25 03:18:47;;;;;;;11.10;7.20;;;8.80;60.90;;;7.03;65.66;102821.00;8414527;28;20119;-80
2022/01/25 03:23:18;;;;;;;10.50;7.57;;;8.70;60.70;;;6.89;65.72;102796.88;8412895;28;20712;-80
2022/01/25 03:27:40;;;;;;;9.38;7.07;;;8.70;60.80;;;6.94;65.69;102815.00;8425702;28;20104;-80
2022/01/25 03:32:02;;;;;;;11.23;6.97;;;8.60;60.80;;;6.86;65.70;102799.47;8403128;28;20103;-81
2022/01/25 03:36:23;;;;;;;12.15;7.65;;;8.60;60.80;;;6.90;66.27;102818.50;8424574;28;20107;-80
2022/01/25 03:40:46;;;;;;;16.17;7.97;;;8.50;60.80;;;6.78;65.87;102809.91;8423097;28;20493;-81
2022/01/25 03:45:17;;;;;;;13.55;8.02;;;8.50;60.80;;;6.83;66.15;102818.53;8421907;28;20040;-81
2022/01/25 03:49:49;;;;;;;11.77;7.63;;;8.50;60.80;;;6.84;65.71;102822.84;8427072;28;20115;-80
2022/01/25 03:54:11;;;;;;;14.45;7.82;;;8.40;60.70;;;6.64;65.67;102791.81;8405210;28;20122;-81
2022/01/25 03:58:33;;;;;;;15.70;8.70;;;8.40;60.80;;;6.81;65.99;102829.81;8421024;28;20111;-81
2022/01/25 04:03:01;;;;;;;13.27;7.82;;;8.30;60.70;;;6.80;65.72;102833.25;8420253;28;20123;-80
2022/01/25 04:07:31;;;;;;;13.73;7.75;;;8.30;60.70;;;6.72;65.69;102815.13;8424100;28;20028;-80
2022/01/25 04:11:52;;;;;;;12.85;7.90;;;8.40;60.90;;;6.65;65.71;102806.50;8419902;28;20103;-80
2022/01/25 04:16:20;;;;;;;12.13;7.43;;;8.30;60.80;;;6.62;66.03;102805.69;8409134;28;20114;-80
2022/01/25 04:20:53;;;;;;;14.73;7.93;;;8.30;60.80;;;6.70;65.74;102821.19;8420428;28;20457;-80
2022/01/25 04:25:15;;;;;;;16.10;8.98;;;8.30;60.90;;;6.69;65.44;102816.88;8390816;28;20040;-80
2022/01/25 04:29:37;;;;;;;14.25;7.93;;;8.20;60.70;;;6.67;65.93;102803.91;8393846;28;20092;-80
2022/01/25 04:34:36;;;;;;;13.23;7.70;;;8.20;60.80;;;6.64;66.14;102807.41;8397302;28;20111;-80
2022/01/25 04:53:08;;;;;;;12.68;7.63;;;8.10;60.70;;;6.54;65.85;102810.03;8416073;28;20618;-80
2022/01/25 04:57:43;;;;;;;14.43;7.63;;;8.10;60.70;;;6.46;65.72;102781.53;8389575;28;20496;-80
2022/01/25 05:02:17;;;;;;;13.77;7.43;;;8.10;60.70;;;6.53;66.12;102790.97;8407329;28;20115;-80
2022/01/25 05:06:42;;;;;;;13.32;7.53;;;8.00;60.60;;;6.48;66.06;102797.06;8418680;28;21060;-80
2022/01/25 05:15:49;;;;;;;13.68;7.75;;;8.00;60.70;;;6.38;65.49;102778.97;8406312;28;20118;-80
2022/01/25 05:24:49;;;;;;;17.88;8.65;;;8.10;60.80;;;6.44;65.93;102793.63;8417054;28;20488;-81
2022/01/25 05:29:11;;;;;;;12.88;6.90;;;8.10;60.70;;;6.41;65.57;102784.13;8405762;28;20123;-81
2022/01/25 05:33:33;;;;;;;13.52;7.75;;;8.10;60.70;;;6.34;65.60;102781.56;8398630;28;20038;-80
2022/01/25 05:37:55;;;;;;;14.57;7.43;;;8.10;60.70;;;6.52;65.44;102819.56;8420294;28;20106;-80
2022/01/25 05:46:48;;;;;;;13.82;7.35;;;8.00;60.50;;;6.34;66.02;102791.94;8419261;28;20119;-81
2022/01/25 05:51:11;;;;;;;13.20;7.18;;;8.00;60.50;;;6.50;65.79;102819.56;8411143;28;20115;-81
2022/01/25 05:55:32;;;;;;;13.48;7.65;;;8.10;60.70;;;6.28;65.66;102781.59;8405720;28;20033;-82
2022/01/25 05:59:54;;;;;;;15.20;8.27;;;8.10;60.60;;;6.47;65.84;102805.75;8362594;28;20047;-81
2022/01/25 06:04:17;;;;;;;14.23;8.15;;;8.00;60.60;;;6.39;65.97;102813.56;8368995;28;20041;-82
2022/01/25 06:08:39;;;;;;;12.60;7.57;;;8.00;60.60;;;6.38;65.94;102807.50;8378132;28;20104;-82
2022/01/25 06:13:01;;;;;;;12.70;7.35;;;8.30;60.90;;;6.40;66.10;102820.50;8377998;28;20036;-82
2022/01/25 06:17:25;;;;;;;11.65;6.35;;;8.10;60.70;;;6.46;65.89;102822.19;8377589;28;20038;-82
2022/01/25 06:21:47;;;;;;;12.55;6.57;;;8.10;60.70;;;6.44;65.96;102814.41;8383366;28;20043;-83
2022/01/25 06:26:09;;;;;;;10.75;7.00;;;8.00;60.50;;;6.49;65.97;102815.25;8377426;28;20044;-80
2022/01/25 06:30:31;;;;;;;12.50;6.88;;;8.10;60.60;;;6.39;65.89;102791.06;8364448;28;20028;-81
2022/01/25 06:34:52;;;;;;;10.75;6.57;;;8.10;60.60;;;6.53;66.12;102814.34;8420263;28;20115;-80
2022/01/25 06:39:15;;;;;;;12.75;7.35;;;8.00;60.50;;;6.39;66.02;102797.97;8412209;28;20123;-80
2022/01/25 06:43:39;;;;;;;12.07;6.90;;;8.10;60.60;;;6.33;66.21;102793.69;8419548;28;20532;-80
2022/01/25 06:48:00;;;;;;;13.20;6.95;;;8.00;60.50;;;6.37;65.85;102802.31;8397660;28;20035;-80
2022/01/25 06:52:22;;;;;;;10.10;6.30;;;8.00;60.50;;;6.47;65.88;102803.16;8390004;28;20040;-79
2022/01/25 06:56:44;;;;;;;10.50;6.57;;;8.10;60.70;;;6.47;65.56;102796.22;8389454;28;20037;-80
2022/01/25 07:01:06;;;;;;;11.52;6.75;;;8.10;60.70;;;6.50;65.76;102811.75;8375308;28;20040;-79
2022/01/25 07:05:28;;;;;;;11.57;6.75;;;8.10;60.70;;;6.52;65.65;102832.53;8377724;28;21064;-81
2022/01/25 07:09:49;;;;;;;11.88;6.97;;;8.10;60.80;;;6.48;65.65;102821.31;8366324;28;20033;-81
2022/01/25 07:14:12;;;;;;;11.52;6.30;;;8.10;60.70;;;6.36;66.10;102805.78;8354376;28;20045;-80
2022/01/25 07:18:34;;;;;;;9.25;5.95;;;8.10;60.60;;;6.47;65.68;102824.75;8374133;28;20052;-80
2022/01/25 07:22:56;;;;;;;9.52;6.30;;;8.10;60.50;;;6.45;66.08;102817.84;8390365;28;20572;-80
2022/01/25 07:27:18;;;;;;;11.20;6.32;;;8.10;60.50;;;6.45;66.00;102825.63;8369504;28;20043;-80
2022/01/25 07:31:40;;;;;;;11.10;6.70;;;8.10;60.50;;;6.41;65.93;102809.22;8364246;28;20040;-80
2022/01/25 07:36:05;;;;;;;13.95;6.85;;;8.10;60.60;;;6.52;66.28;102832.53;8378509;28;20158;-80
2022/01/25 07:40:27;;;;;;;10.07;6.78;;;8.10;60.60;;;6.49;66.36;102824.78;8392005;28;20059;-80
2022/01/25 07:44:49;;;;;;;11.73;6.50;;;8.10;60.60;;;6.44;65.93;102829.97;8391630;28;20505;-80
2022/01/25 07:49:10;;;;;;;12.30;6.95;;;8.10;60.60;;;6.45;66.15;102828.22;8372996;28;20481;-80
2022/01/25 07:53:32;;;;;;;14.60;7.18;;;8.10;60.70;;;6.39;66.41;102818.75;8361688;28;20044;-80
2022/01/25 07:57:54;;;;;;;14.73;8.70;;;8.10;60.70;;;6.39;65.97;102809.22;8395901;28;20474;-80
2022/01/25 08:02:17;;;;;;;13.55;7.75;;;8.10;60.80;;;6.52;65.93;102817.81;8392697;28;20396;-80
2022/01/25 08:06:40;;;;;;;13.25;7.80;;;8.10;60.80;;;6.49;65.69;102817.84;8400236;28;20028;-81
2022/01/25 08:11:03;;;;;;;10.35;6.60;;;8.10;60.80;;;6.53;66.18;102835.09;8415720;28;20062;-80
2022/01/25 08:15:25;;;;;;;9.52;5.97;;;8.10;60.80;;;6.47;66.20;102824.75;8416877;28;20115;-81
2022/01/25 08:19:46;;;;;;;13.75;7.60;;;8.10;60.80;;;6.52;66.37;102825.59;8389704;28;20034;-81
2022/01/25 08:24:11;;;;;;;13.75;8.32;;;8.10;60.90;;;6.51;66.05;102826.50;8420339;28;20036;-81
2022/01/25 08:28:32;;;;;;;12.35;7.20;;;8.10;61.00;;;6.48;65.63;102817.84;8407451;28;20451;-81
2022/01/25 08:32:54;;;;;;;15.43;8.45;;;8.10;61.00;;;6.46;65.51;102812.66;8413584;28;20042;-80
2022/01/25 08:37:16;;;;;;;13.90;8.05;;;8.10;61.10;;;6.48;66.16;102803.16;8413480;28;20123;-81
2022/01/25 08:41:39;;;;;;;13.15;8.07;;;8.10;61.10;;;6.47;65.90;102809.19;8404220;28;20046;-81
2022/01/25 08:46:02;;;;;;;13.63;8.05;;;8.20;61.20;;;6.32;65.82;102788.50;8409875;28;20400;-81
2022/01/25 08:50:25;;;;;;;16.17;8.65;;;8.20;61.10;;;6.45;66.13;102813.50;8408226;28;20250;-81
2022/01/25 08:54:47;;;;;;;14.40;7.55;;;8.10;61.10;;;6.49;66.46;102812.66;8376807;28;20416;-80
2022/01/25 08:59:10;;;;;;;15.50;8.77;;;8.00;61.10;;;6.33;66.00;102793.69;8407046;28;20513;-81
2022/01/25 09:03:31;;;;;;;14.60;8.13;;;8.00;61.10;;;6.52;66.15;102825.59;8399344;28;20294;-80
2022/01/25 09:07:57;;;;;;;15.30;8.63;;;8.10;61.30;;;6.55;66.00;102817.81;8409334;28;20123;-81
2022/01/25 09:12:18;;;;;;;13.53;7.37;;;8.20;61.40;;;6.50;65.71;102809.19;8416452;28;20115;-81
2022/01/25 09:16:41;;;;;;;18.42;8.30;;;8.20;61.40;;;6.57;66.49;102805.69;8406072;28;20376;-80
2022/01/25 09:21:03;;;;;;;14.05;7.05;;;8.10;61.40;;;6.51;65.90;102791.88;8406651;28;20154;-81
2022/01/25 09:25:24;;;;;;;14.00;7.45;;;8.20;61.50;;;6.62;65.99;102808.28;8389366;28;20493;-81
2022/01/25 09:29:47;;;;;;;15.23;7.82;;;8.20;61.40;;;6.47;65.69;102769.41;8416478;28;20115;-81
2022/01/25 09:34:08;;;;;;;15.25;8.35;;;8.10;61.30;;;6.58;66.44;102797.03;8397746;28;20125;-81
2022/01/25 09:38:31;;;;;;;15.40;7.53;;;8.20;61.50;;;6.59;66.06;102795.31;8421168;28;20118;-81
2022/01/25 09:42:56;;;;;;;14.15;7.70;;;8.20;61.60;;;6.68;66.36;102797.00;8423753;28;20166;-83
2022/01/25 09:47:17;;;;;;;12.15;6.88;;;8.30;61.70;;;6.56;66.27;102774.53;8385229;28;20048;-81
2022/01/25 09:51:43;;;;;;;13.50;6.95;;;8.30;62.20;;;6.28;65.91;102724.53;8386175;28;20050;-80
2022/01/25 09:56:06;;;;;;;11.68;7.10;;;8.40;61.80;;;6.78;66.53;102794.34;8374358;28;20460;-80
2022/01/25 10:00:31;;;;;;;12.02;7.35;;;8.40;61.70;;;6.70;66.33;102782.25;8380593;28;20036;-80
2022/01/25 10:04:52;;;;;;;11.60;6.55;;;8.40;61.70;;;6.82;66.17;102785.63;8401689;28;20032;-80
2022/01/25 10:09:15;;;;;;;11.73;6.85;;;8.50;61.60;;;6.81;66.33;102789.13;8402662;28;20556;-80
2022/01/25 10:13:40;;;;;;;12.98;7.45;;;8.50;61.60;;;6.76;66.17;102782.22;8405848;28;20112;-80
2022/01/25 10:18:04;;;;;;;11.93;7.88;;;8.40;61.50;;;6.80;66.36;102792.56;8392380;28;20143;-80
2022/01/25 10:22:27;;;;;;;12.32;6.93;;;8.50;61.60;;;6.76;66.18;102783.09;8411795;28;20028;-80
2022/01/25 10:26:52;;;;;;;12.15;7.10;;;8.40;61.50;;;6.70;66.37;102764.97;8403666;28;20108;-80
2022/01/25 10:31:14;;;;;;;11.43;7.30;;;8.50;61.60;;;6.71;66.35;102781.38;8401560;28;20028;-80
2022/01/25 10:35:37;;;;;;;11.50;6.13;;;8.30;61.60;;;6.75;66.77;102781.38;8415287;28;20130;-80
2022/01/25 10:39:59;;;;;;;11.68;6.63;;;8.50;62.50;;;6.84;66.47;102788.22;8403948;28;20268;-80
2022/01/25 10:44:21;;;;;;;9.98;5.65;;;8.40;61.70;;;6.82;65.99;102783.03;8421978;28;20473;-80
2022/01/25 10:48:50;;;;;;;10.00;5.88;;;8.50;61.80;;;6.82;66.06;102777.00;8399077;28;20038;-78
2022/01/25 10:53:16;;;;;;;9.43;5.10;;;8.40;61.90;;;6.72;66.51;102763.19;8405668;28;20047;-78
2022/01/25 10:57:38;;;;;;;10.05;5.90;;;8.50;62.00;;;6.84;66.48;102772.66;8403185;28;20032;-80
2022/01/25 11:02:06;;;;;;;9.32;5.22;;;8.50;62.00;;;6.82;66.23;102758.81;8420591;27;20040;-80
2022/01/25 11:06:28;;;;;;;7.22;4.60;;;8.50;62.20;;;6.81;66.67;102762.28;8409488;28;20042;-80
2022/01/25 11:10:57;;;;;;;9.25;5.35;;;8.50;62.20;;;6.93;66.02;102782.13;8406113;28;20032;-80
2022/01/25 11:15:18;;;;;;;8.07;4.93;;;8.50;62.10;;;6.85;66.37;102756.19;8388360;28;20568;-87
2022/01/25 11:19:41;;;;;;;7.63;5.60;;;8.50;62.00;;;6.89;66.05;102754.47;8415374;28;20130;-84
2022/01/25 11:24:04;;;;;;;11.20;5.50;;;8.60;62.10;;;6.85;66.59;102751.00;8420291;28;20050;-87
2022/01/25 11:28:25;;;;;;;7.60;4.93;;;8.60;62.00;;;6.82;66.33;102733.69;8408723;28;20414;-80
2022/01/25 11:32:49;;;;;;;7.40;5.20;;;8.50;62.10;;;7.00;66.30;102763.88;8399109;28;20038;-80
2022/01/25 11:37:12;;;;;;;8.07;4.68;;;8.60;62.10;;;6.91;66.10;102740.56;8410039;28;20048;-80
2022/01/25 11:41:34;;;;;;;9.07;5.63;;;8.60;62.20;;;7.06;66.63;102756.03;8424931;28;20308;-80
2022/01/25 11:46:05;;;;;;;9.30;5.72;;;8.60;62.20;;;7.05;66.67;102754.31;8420919;28;20038;-79
2022/01/25 11:50:28;;;;;;;11.15;5.50;;;8.60;62.10;;;7.10;66.07;102764.66;8417530;28;20130;-81
2022/01/25 11:54:54;;;;;;;8.77;5.20;;;8.70;62.00;;;7.00;66.59;102739.66;8422509;28;20123;-82
2022/01/25 11:59:16;;;;;;;10.98;4.50;;;8.70;62.00;;;7.13;66.51;102754.25;8402806;28;20123;-81
2022/01/25 12:03:50;;;;;;;8.23;4.97;;;8.70;61.90;;;7.02;65.99;102733.56;8390735;28;20040;-80
2022/01/25 12:08:24;;;;;;;7.25;4.10;;;8.70;61.90;;;7.08;66.20;102736.09;8410644;28;20044;-80
2022/01/25 12:13:20;;;;;;;7.03;4.47;;;8.80;61.80;;;7.13;66.74;102742.97;8411724;28;20036;-80
2022/01/25 12:17:45;;;;;;;5.00;3.60;;;8.70;61.80;;;7.14;66.35;102729.13;8421825;28;20043;-80
2022/01/25 12:27:00;;;;;;;6.00;3.88;;;8.80;61.80;;;6.99;66.48;102701.53;8422240;28;20044;-80
2022/01/25 12:31:22;;;;;;;8.23;4.93;;;8.70;61.70;;;7.13;66.46;102717.00;8395242;28;20029;-81
2022/01/25 12:36:03;;;;;;;6.72;4.38;;;8.80;61.80;;;7.18;66.33;102715.22;8360600;28;20508;-83
2022/01/25 12:40:24;;;;;;;8.32;4.50;;;8.80;61.90;;;7.20;66.05;102714.34;8382612;28;20039;-82
2022/01/25 12:44:53;;;;;;;9.60;4.80;;;8.80;61.80;;;7.16;66.30;102707.47;8403151;28;20036;-82
2022/01/25 12:49:17;;;;;;;8.73;4.85;;;8.80;61.80;;;7.18;66.28;102700.50;8390024;28;20547;-83
2022/01/25 12:53:43;;;;;;;6.93;4.15;;;8.70;61.70;;;7.17;66.54;102703.13;8377224;28;20036;-81
2022/01/25 12:58:08;;;;;;;6.45;4.30;;;8.80;61.70;;;7.19;66.12;102698.78;8396834;28;20526;-80
2022/01/25 13:02:30;;;;;;;7.10;4.87;;;8.80;61.80;;;7.01;66.04;102669.50;8369700;28;20044;-80
2022/01/25 13:06:52;;;;;;;6.72;4.60;;;8.70;61.70;;;7.15;66.15;102681.50;8385472;28;20045;-80
2022/01/25 13:16:08;;;;;;;7.05;4.28;;;8.80;61.80;;;7.20;66.31;102677.13;8370259;28;20044;-80
2022/01/25 13:20:30;;;;;;;6.40;3.85;;;8.90;61.90;;;7.23;66.07;102684.88;8330548;28;20058;-80
2022/01/25 13:25:12;;;;;;;5.72;3.78;;;8.80;61.70;;;7.20;66.06;102672.78;8335542;28;20705;-80
2022/01/25 13:34:23;;;;;;;6.05;3.75;;;8.90;61.80;;;7.20;66.42;102640.75;8335480;28;20032;-80
2022/01/25 13:38:46;;;;;;;5.95;3.97;;;8.80;61.60;;;7.22;66.44;102652.00;8358094;28;20038;-81
2022/01/25 13:43:30;;;;;;;5.55;4.28;;;8.90;61.70;;;7.28;66.28;102659.72;8392782;28;20059;-79
2022/01/25 13:47:59;;;;;;;8.38;4.55;;;8.90;61.80;;;7.15;66.22;102637.31;8401981;28;20040;-79
2022/01/25 13:52:21;;;;;;;4.75;3.60;;;8.80;61.80;;;7.30;66.61;102658.81;8365794;28;20058;-80
2022/01/25 13:56:43;;;;;;;7.88;4.35;;;8.90;61.90;;;7.28;66.41;102652.78;8398318;28;20504;-80
2022/01/25 14:01:07;;;;;;;6.90;4.72;;;8.90;62.00;;;7.35;66.51;102663.97;8395597;28;20040;-79
2022/01/25 14:05:36;;;;;;;7.00;4.45;;;9.00;62.80;;;7.26;66.40;102648.47;8417913;28;20550;-80
2022/01/25 14:10:12;;;;;;;6.28;3.95;;;9.00;62.20;;;7.25;66.06;102644.16;8406975;28;20036;-80
2022/01/25 14:24:06;;;;;;;7.50;4.47;;;9.00;62.10;;;7.35;66.58;102666.56;8385850;28;20040;-79
2022/01/25 14:28:28;;;;;;;14.18;4.82;;;9.00;62.30;;;7.35;66.62;102665.72;8376989;28;20503;-80
2022/01/25 14:33:14;;;;;;;7.07;4.60;;;9.00;62.30;;;7.34;66.64;102653.59;8397857;28;20032;-80
2022/01/25 14:37:46;;;;;;;7.55;4.68;;;9.00;62.40;;;7.37;66.77;102657.03;8412527;28;20040;-80
2022/01/25 14:42:11;;;;;;;8.57;5.18;;;8.90;62.30;;;7.23;66.38;102635.50;8395778;28;20046;-80
2022/01/25 14:46:50;;;;;;;9.10;4.97;;;8.90;62.20;;;7.32;66.40;102651.03;8384379;28;20041;-80
2022/01/25 14:51:13;;;;;;;9.15;5.28;;;9.00;62.40;;;7.23;66.39;102625.13;8400961;28;20033;-80
2022/01/25 14:55:41;;;;;;;9.00;5.07;;;8.90;62.30;;;7.31;66.58;102638.88;8416786;27;20032;-81
2022/01/25 15:00:06;;;;;;;8.00;5.13;;;8.90;62.40;;;7.34;66.46;102638.00;8377493;28;20059;-81
2022/01/25 15:04:37;;;;;;;9.60;5.27;;;8.90;62.50;;;7.26;66.76;102635.47;8386016;28;20493;-82
2022/01/25 15:08:59;;;;;;;7.60;4.40;;;8.90;62.50;;;7.33;66.04;102647.53;8419341;28;20034;-81
2022/01/25 15:13:24;;;;;;;8.82;4.55;;;8.90;62.40;;;7.24;66.55;102634.66;8375864;28;20040;-80
2022/01/25 15:17:46;;;;;;;7.78;4.60;;;8.80;62.30;;;7.32;66.43;102651.88;8403053;28;20424;-80
2022/01/25 15:22:09;;;;;;;10.43;5.90;;;8.90;62.60;;;7.22;66.26;102647.66;8390151;28;20753;-81
2022/01/25 15:26:36;;;;;;;9.95;6.25;;;8.90;62.60;;;7.25;66.30;102650.22;8390870;28;20036;-80
2022/01/25 15:30:57;;;;;;;11.85;5.68;;;8.90;62.60;;;7.32;66.77;102666.63;8384348;28;20039;-81
2022/01/25 15:35:21;;;;;;;8.77;5.53;;;8.90;62.60;;;7.25;66.43;102654.56;8387439;28;20042;-80
2022/01/25 15:39:44;;;;;;;8.70;5.15;;;8.90;62.70;;;7.32;66.30;102664.00;8381061;28;20036;-80
2022/01/25 15:44:07;;;;;;;7.43;5.00;;;8.90;62.70;;;7.32;66.91;102677.88;8404352;28;20050;-81
2022/01/25 15:48:30;;;;;;;9.50;5.80;;;8.90;62.70;;;7.15;66.48;102647.72;8386396;28;20047;-81
2022/01/25 15:52:53;;;;;;;8.10;5.60;;;8.90;62.80;;;7.01;66.23;102634.88;8387244;28;20038;-81
2022/01/25 15:57:14;;;;;;;12.13;6.43;;;8.90;62.80;;;7.11;66.26;102651.25;8413893;28;20408;-81
2022/01/25 16:01:36;;;;;;;8.63;5.15;;;8.80;62.80;;;7.26;66.46;102679.66;8407632;27;20044;-80
2022/01/25 16:05:58;;;;;;;8.52;4.95;;;8.80;62.80;;;7.26;66.35;102692.63;8398815;28;20034;-80
2022/01/25 16:10:22;;;;;;;9.95;4.75;;;8.80;62.90;;;6.97;66.42;102636.63;8407985;28;20042;-81
2022/01/25 16:14:44;;;;;;;7.68;4.88;;;8.80;62.90;;;7.13;66.38;102662.44;8397827;28;20036;-81
2022/01/25 16:19:06;;;;;;;8.43;4.75;;;8.90;62.90;;;7.31;66.78;102696.06;8399018;28;20534;-81
2022/01/25 16:23:27;;;;;;;8.07;5.00;;;8.90;62.90;;;6.91;66.54;102617.63;8406203;28;20036;-80
2022/01/25 16:27:50;;;;;;;7.63;4.80;;;8.70;62.90;;;7.29;66.38;102683.09;8399732;28;20386;-81
2022/01/25 16:32:13;;;;;;;7.18;4.57;;;8.90;62.90;;;7.25;66.84;102672.75;8392729;28;20040;-80
2022/01/25 16:36:37;;;;;;;6.47;4.28;;;8.90;62.90;;;7.22;66.58;102670.16;8387939;28;20039;-81
2022/01/25 16:40:59;;;;;;;6.40;3.97;;;8.90;62.90;;;7.17;66.59;102658.97;8391007;28;20038;-81
2022/01/25 16:45:22;;;;;;;6.88;4.85;;;8.80;62.80;;;7.34;66.38;102690.81;8415400;28;20039;-81
2022/01/25 16:49:44;;;;;;;11.93;5.47;;;8.90;62.90;;;7.26;66.39;102677.03;8402815;28;20044;-80
2022/01/25 16:54:05;;;;;;;10.43;6.22;;;8.90;62.90;;;7.29;66.63;102679.59;8407023;28;20061;-81
2022/01/25 16:58:27;;;;;;;12.45;6.03;;;8.90;62.90;;;7.36;66.61;102689.09;8398273;28;20415;-81
2022/01/25 17:02:49;;;;;;;15.40;6.93;;;8.90;62.90;;;7.29;66.51;102679.59;8413399;27;20040;-81
2022/01/25 17:07:11;;;;;;;12.07;6.18;;;8.90;62.80;;;7.38;66.68;102691.69;8382419;28;20040;-81
2022/01/25 17:11:36;;;;;;;13.75;7.18;;;8.80;62.70;;;7.36;66.73;102694.28;8388833;28;20040;-81
2022/01/25 17:16:00;;;;;;;10.75;6.68;;;8.80;62.70;;;7.29;66.39;102685.69;8384477;28;20057;-81
2022/01/25 17:20:22;;;;;;;10.10;6.72;;;9.00;62.90;;;7.27;66.53;102671.00;8408359;28;20595;-81
2022/01/25 17:24:44;;;;;;;10.43;5.57;;;8.90;62.80;;;7.34;66.47;102685.63;8400560;28;20039;-81
2022/01/25 17:29:08;;;;;;;12.45;7.20;;;8.90;62.70;;;7.32;66.68;102693.47;8411882;28;20044;-81
2022/01/25 17:33:30;;;;;;;14.48;8.13;;;8.90;62.70;;;7.28;66.83;102688.28;8394387;28;20050;-81
2022/01/25 17:37:51;;;;;;;11.18;6.20;;;8.90;62.70;;;7.09;66.62;102654.69;8402146;28;20042;-81
2022/01/25 17:42:13;;;;;;;16.17;7.15;;;8.80;62.70;;;7.30;66.79;102695.19;8389244;28;20063;-81
2022/01/25 17:46:36;;;;;;;10.43;6.00;;;8.90;62.90;;;7.32;66.41;102703.00;8377541;28;20043;-81
2022/01/25 17:50:58;;;;;;;11.70;6.65;;;8.90;62.90;;;7.28;66.70;102693.50;8365254;28;20066;-81
2022/01/25 17:55:20;;;;;;;10.80;6.72;;;8.90;62.90;;;7.27;66.78;102691.78;8385715;28;20579;-81
2022/01/25 17:59:42;;;;;;;9.63;5.82;;;8.80;62.80;;;7.12;66.89;102669.38;8388954;28;20036;-81
2022/01/25 18:04:04;;;;;;;9.20;5.32;;;9.10;63.10;;;7.00;66.61;102648.75;8376869;28;20048;-82
2022/01/25 18:08:29;;;;;;;9.00;5.63;;;8.90;62.90;;;7.25;66.67;102690.94;8380330;28;20032;-81
2022/01/25 18:12:53;;;;;;;11.90;7.20;;;8.80;62.90;;;7.24;66.58;102678.81;8380093;28;20052;-82
2022/01/25 18:17:17;;;;;;;11.75;7.43;;;8.90;63.00;;;7.27;66.84;102700.44;8367059;28;20040;-81
2022/01/25 18:21:43;;;;;;;8.85;5.57;;;8.90;63.10;;;7.30;66.85;102691.75;8388347;28;20046;-81
2022/01/25 18:26:10;;;;;;;8.07;5.38;;;8.90;63.00;;;7.31;66.58;102696.06;8373347;28;20040;-81
2022/01/25 18:30:32;;;;;;;7.45;4.88;;;8.90;63.10;;;7.13;66.44;102673.72;8385619;28;20042;-81
2022/01/25 18:34:54;;;;;;;9.02;5.47;;;8.90;63.10;;;7.35;66.68;102708.16;8388164;28;20413;-85
2022/01/25 18:39:19;;;;;;;8.23;5.10;;;8.90;63.00;;;7.17;66.84;102672.81;8391004;28;20078;-82
2022/01/25 18:43:40;;;;;;;9.07;5.82;;;8.90;63.00;;;7.23;66.92;102687.47;8392443;28;20050;-81
2022/01/25 18:48:05;;;;;;;9.25;5.40;;;8.90;63.00;;;7.31;66.70;102696.91;8397615;28;20046;-82
2022/01/25 18:52:26;;;;;;;8.85;5.88;;;8.90;63.00;;;7.30;66.53;102694.34;8376510;28;20249;-81
2022/01/25 18:56:49;;;;;;;8.95;5.53;;;8.90;63.00;;;7.30;66.88;102703.00;8395129;28;20062;-82
2022/01/25 19:01:14;;;;;;;9.27;5.20;;;8.90;63.00;;;7.32;66.55;102697.81;8397620;28;20476;-81
2022/01/25 19:05:36;;;;;;;10.32;5.40;;;8.90;63.10;;;7.25;66.74;102691.78;8397139;28;20048;-81
2022/01/25 19:09:58;;;;;;;10.00;5.18;;;8.90;63.10;;;7.25;67.05;102680.53;8377615;28;20032;-81
2022/01/25 19:14:20;;;;;;;10.23;5.95;;;8.80;63.00;;;7.12;66.95;102669.38;8408871;28;20028;-81
2022/01/25 19:18:42;;;;;;;10.07;5.75;;;8.90;63.20;;;7.28;66.68;102690.91;8395468;28;20040;-81
2022/01/25 19:23:04;;;;;;;9.98;5.68;;;8.80;63.10;;;7.18;66.86;102682.31;8400863;28;20044;-82
2022/01/25 19:27:27;;;;;;;8.32;5.68;;;8.90;63.20;;;7.21;66.87;102671.91;8372308;28;20503;-83
2022/01/25 19:31:49;;;;;;;8.68;5.72;;;8.90;63.20;;;7.13;66.46;102654.66;8372803;28;20036;-82
2022/01/25 19:36:13;;;;;;;8.73;5.30;;;8.90;63.30;;;7.24;66.86;102678.81;8374173;28;20042;-82
2022/01/25 19:40:35;;;;;;;10.27;5.88;;;8.80;63.20;;;7.05;67.07;102636.56;8362259;28;20044;-81
2022/01/25 19:44:58;;;;;;;11.10;6.10;;;8.90;63.30;;;7.25;66.48;102671.00;8380907;28;20041;-82
2022/01/25 19:49:20;;;;;;;11.40;6.70;;;8.90;63.20;;;7.23;67.12;102667.53;8372489;28;20040;-82
2022/01/25 19:53:42;;;;;;;10.73;6.07;;;8.90;63.20;;;7.27;67.10;102673.59;8369253;28;20028;-81
2022/01/25 19:58:06;;;;;;;10.98;6.55;;;8.90;63.20;;;7.32;66.91;102685.66;8400531;28;20074;-81
2022/01/25 20:02:38;;;;;;;10.10;5.97;;;8.80;63.10;;;7.21;66.66;102661.53;8377473;28;20048;-82
2022/01/25 20:07:07;;;;;;;11.23;6.93;;;8.90;63.20;;;7.16;67.02;102662.44;8398402;28;20050;-80
2022/01/25 20:11:30;;;;;;;11.52;6.32;;;8.90;63.10;;;7.19;66.60;102670.22;8366686;28;20476;-83
2022/01/25 20:16:00;;;;;;;10.13;5.40;;;8.90;63.10;;;7.24;66.85;102679.69;8387937;28;20152;-83
2022/01/25 20:30:09;;;;;;;9.02;5.32;;;8.80;63.20;;;7.21;67.09;102669.31;8383594;28;20059;-82
2022/01/25 20:34:33;;;;;;;7.82;5.05;;;8.60;63.10;;;7.20;66.80;102672.78;8380389;28;20028;-82
2022/01/25 20:38:54;;;;;;;9.95;5.30;;;8.90;63.30;;;7.18;67.17;102658.94;8370249;28;20035;-82
2022/01/25 20:43:20;;;;;;;12.13;5.70;;;8.80;63.20;;;7.12;66.85;102651.22;8391963;28;20103;-82